createdAt,value
2018-12-13T00:03:13.469Z,76.05
2018-12-13T00:08:18.426Z,76.00
2018-12-13T00:13:21.532Z,76.19
2018-12-13T00:18:24.359Z,76.35
2018-12-13T00:23:27.166Z,76.75
2018-12-13T00:28:29.957Z,76.25
2018-12-13T00:33:32.829Z,76.53
2018-12-13T00:38:35.524Z,76.32
2018-12-13T00:43:38.253Z,76.52
2018-12-13T00:48:41.275Z,76.37
2018-12-13T00:53:43.993Z,76.37
2018-12-13T00:58:46.975Z,76.63
2018-12-13T01:03:49.966Z,76.31
2018-12-13T01:08:53.166Z,76.33
2018-12-13T01:13:56.106Z,76.55
2018-12-13T01:18:59.006Z,76.77
2018-12-13T01:24:01.739Z,76.55
2018-12-13T01:29:04.639Z,76.80
2018-12-13T01:34:08.609Z,76.34
2018-12-13T01:39:11.515Z,77.02
2018-12-13T01:44:14.316Z,76.78
2018-12-13T01:49:17.221Z,76.68
2018-12-13T01:54:19.965Z,76.43
2018-12-13T01:59:23.211Z,76.68
2018-12-13T02:04:25.991Z,76.69
2018-12-13T02:09:29.046Z,76.80
2018-12-13T02:14:32.010Z,76.44
2018-12-13T02:19:34.818Z,76.54
2018-12-13T02:24:37.681Z,76.52
2018-12-13T02:29:43.313Z,76.94
2018-12-13T02:34:46.292Z,76.54
2018-12-13T02:39:49.329Z,76.30
2018-12-13T02:44:51.995Z,76.26
2018-12-13T02:49:54.896Z,76.61
2018-12-13T02:54:57.935Z,76.86
2018-12-13T03:00:00.759Z,76.34
2018-12-13T03:05:04.739Z,76.47
2018-12-13T03:10:08.289Z,76.61
2018-12-13T03:15:11.083Z,76.51
2018-12-13T03:20:14.288Z,76.83
2018-12-13T03:25:17.464Z,76.85
2018-12-13T03:30:20.286Z,76.68
2018-12-13T03:35:23.337Z,76.86
2018-12-13T03:40:28.478Z,76.12
2018-12-13T03:45:31.922Z,76.57
2018-12-13T03:50:34.803Z,76.24
2018-12-13T03:55:38.152Z,76.26
2018-12-13T04:00:41.896Z,76.77
2018-12-13T04:05:45.119Z,76.34
2018-12-13T04:10:48.067Z,76.85
2018-12-13T04:15:50.949Z,76.83
2018-12-13T04:20:53.908Z,76.87
2018-12-13T04:25:57.043Z,76.25
2018-12-13T04:31:00.029Z,76.63
2018-12-13T04:36:02.945Z,76.70
2018-12-13T04:41:05.897Z,76.21
2018-12-13T04:46:08.832Z,76.63
2018-12-13T04:51:11.700Z,76.44
2018-12-13T04:56:14.595Z,76.60
2018-12-13T05:01:17.669Z,76.72
2018-12-13T05:06:20.542Z,76.40
2018-12-13T05:11:23.413Z,76.46
2018-12-13T05:16:26.265Z,76.54
2018-12-13T05:21:29.014Z,76.63
2018-12-13T05:26:31.756Z,76.27
2018-12-13T05:31:34.741Z,76.29
2018-12-13T05:36:38.004Z,76.48
2018-12-13T05:41:40.787Z,76.12
2018-12-13T05:46:43.608Z,76.54
2018-12-13T05:51:46.257Z,76.31
2018-12-13T05:56:49.135Z,76.24
2018-12-13T06:01:51.950Z,76.69
2018-12-13T06:06:54.911Z,76.33
2018-12-13T06:11:58.778Z,76.32
2018-12-13T06:17:02.348Z,76.55
2018-12-13T06:22:05.255Z,76.65
2018-12-13T06:27:08.402Z,76.46
2018-12-13T06:32:11.388Z,76.83
2018-12-13T06:37:14.422Z,76.68
2018-12-13T06:42:17.098Z,76.32
2018-12-13T06:47:19.852Z,76.76
2018-12-13T06:52:22.900Z,76.81
2018-12-13T06:57:25.965Z,76.62
2018-12-13T07:02:29.374Z,76.71
2018-12-13T07:07:32.177Z,76.45
2018-12-13T07:12:35.041Z,76.86
2018-12-13T07:17:37.755Z,76.48
2018-12-13T07:22:40.749Z,76.46
2018-12-13T07:27:43.490Z,76.29
2018-12-13T07:32:46.293Z,76.32
2018-12-13T07:37:49.104Z,76.57
2018-12-13T07:42:51.974Z,76.18
2018-12-13T07:47:54.864Z,76.08
2018-12-13T07:52:57.760Z,76.36
2018-12-13T07:58:00.473Z,76.61
2018-12-13T08:03:03.456Z,76.51
2018-12-13T08:08:06.495Z,76.45
2018-12-13T08:13:11.163Z,76.10
2018-12-13T08:18:13.886Z,76.43
2018-12-13T08:23:18.833Z,76.09
2018-12-13T08:28:21.760Z,76.03
2018-12-13T08:33:24.661Z,76.32
2018-12-13T08:38:27.518Z,76.23
2018-12-13T08:43:30.644Z,75.66
2018-12-13T08:48:33.556Z,75.66
2018-12-13T08:53:36.261Z,76.00
2018-12-13T08:58:38.972Z,75.94
2018-12-13T09:03:42.100Z,76.21
2018-12-13T09:08:44.926Z,75.96
2018-12-13T09:13:47.746Z,75.79
2018-12-13T09:18:50.649Z,75.44
2018-12-13T09:23:53.536Z,75.58
2018-12-13T09:28:56.232Z,75.82
2018-12-13T09:33:59.164Z,75.50
2018-12-13T09:39:02.256Z,75.21
2018-12-13T09:49:22.909Z,75.42
2018-12-13T09:54:27.032Z,75.61
2018-12-13T09:59:30.066Z,75.10
2018-12-13T10:04:32.772Z,74.74
2018-12-13T10:09:35.865Z,74.88
2018-12-13T10:14:38.633Z,74.88
2018-12-13T10:19:41.504Z,74.85
2018-12-13T10:24:44.296Z,74.64
2018-12-13T10:29:47.383Z,74.92
2018-12-13T10:34:50.137Z,74.61
2018-12-13T10:39:52.885Z,74.47
2018-12-13T10:44:55.644Z,74.51
2018-12-13T10:49:58.412Z,74.73
2018-12-13T10:55:01.237Z,74.50
2018-12-13T11:05:27.328Z,74.09
2018-12-13T11:10:30.476Z,74.43
2018-12-13T11:15:33.452Z,73.96
2018-12-13T11:20:36.346Z,74.30
2018-12-13T11:25:39.321Z,73.92
2018-12-13T11:30:42.346Z,74.34
2018-12-13T11:35:45.369Z,73.97
2018-12-13T11:40:48.220Z,74.06
2018-12-13T11:45:50.867Z,73.73
2018-12-13T11:50:53.804Z,73.87
2018-12-13T11:55:56.739Z,73.89
2018-12-13T12:00:59.731Z,73.52
2018-12-13T12:06:02.674Z,72.97
2018-12-13T12:11:05.615Z,73.45
2018-12-13T12:16:09.270Z,73.53
2018-12-13T12:21:12.151Z,73.97
2018-12-13T12:26:15.169Z,73.92
2018-12-13T12:31:18.186Z,73.57
2018-12-13T12:36:20.876Z,73.70
2018-12-13T12:41:23.932Z,73.94
2018-12-13T12:46:26.826Z,73.94
2018-12-13T12:51:30.026Z,73.77
2018-12-13T12:56:34.028Z,73.90
2018-12-13T13:01:36.808Z,73.92
2018-12-13T13:06:39.543Z,74.17
2018-12-13T13:11:42.407Z,73.97
2018-12-13T13:16:45.226Z,74.17
2018-12-13T13:21:47.997Z,73.64
2018-12-13T13:26:51.747Z,73.91
2018-12-13T13:31:54.684Z,73.68
2018-12-13T13:36:57.542Z,73.26
2018-12-13T13:42:00.898Z,73.46
2018-12-13T13:47:04.824Z,73.46
2018-12-13T13:52:08.679Z,73.49
2018-12-13T13:57:11.934Z,73.55
2018-12-13T14:02:15.762Z,73.46
2018-12-13T14:07:18.884Z,73.60
2018-12-13T14:12:21.632Z,73.61
2018-12-13T14:17:24.396Z,73.69
2018-12-13T14:22:27.357Z,73.77
2018-12-13T14:27:30.077Z,73.95
2018-12-13T14:32:33.040Z,73.70
2018-12-13T14:37:35.855Z,73.74
2018-12-13T14:42:38.724Z,74.12
2018-12-13T14:47:41.440Z,73.67
2018-12-13T14:52:44.348Z,73.97
2018-12-13T14:57:47.255Z,73.80
2018-12-13T15:02:50.092Z,73.92
2018-12-13T15:07:53.368Z,74.03
2018-12-13T15:12:56.163Z,73.66
2018-12-13T15:17:59.022Z,73.64
2018-12-13T15:23:01.745Z,74.13
2018-12-13T15:28:04.630Z,73.64
2018-12-13T15:33:07.583Z,73.71
2018-12-13T15:38:11.346Z,73.94
2018-12-13T15:43:13.982Z,74.36
2018-12-13T15:48:16.828Z,74.06
2018-12-13T15:53:19.504Z,74.17
2018-12-13T15:58:22.608Z,74.11
2018-12-13T16:03:26.089Z,74.16
2018-12-13T16:08:28.931Z,74.10
2018-12-13T16:13:31.688Z,74.24
2018-12-13T16:18:34.380Z,74.23
2018-12-13T16:23:37.141Z,74.37
2018-12-13T16:28:39.879Z,74.87
2018-12-13T16:33:42.644Z,74.50
2018-12-13T16:38:45.492Z,74.49
2018-12-13T16:43:48.373Z,74.89
2018-12-13T16:48:51.248Z,74.78
2018-12-13T16:53:54.081Z,75.00
2018-12-13T16:58:56.844Z,74.86
2018-12-13T17:04:00.594Z,75.11
2018-12-13T17:09:05.848Z,75.02
2018-12-13T17:14:11.017Z,75.07
2018-12-13T17:19:13.944Z,75.07
2018-12-13T17:24:16.703Z,75.45
2018-12-13T17:29:20.150Z,75.51
2018-12-13T17:34:22.932Z,75.35
2018-12-13T17:39:25.872Z,75.57
2018-12-13T17:44:28.756Z,75.81
2018-12-13T17:49:31.594Z,75.78
2018-12-13T17:54:34.366Z,75.67
2018-12-13T17:59:37.266Z,75.49
2018-12-13T18:04:41.021Z,75.83
2018-12-13T18:09:44.058Z,75.81
2018-12-13T18:14:47.064Z,75.81
2018-12-13T18:19:49.812Z,75.57
2018-12-13T18:24:53.706Z,75.33
2018-12-13T18:29:56.344Z,75.77
2018-12-13T18:35:00.361Z,75.31
2018-12-13T18:40:05.166Z,75.40
2018-12-13T18:45:08.528Z,75.12
2018-12-13T18:50:11.638Z,75.45
2018-12-13T18:55:15.157Z,75.30
2018-12-13T19:00:17.940Z,75.44
2018-12-13T19:05:20.876Z,75.76
2018-12-13T19:10:24.258Z,75.36
2018-12-13T19:15:27.126Z,75.15
2018-12-13T19:20:30.018Z,75.19
2018-12-13T19:25:32.919Z,75.29
2018-12-13T19:30:35.873Z,75.14
2018-12-13T19:35:38.724Z,75.10
2018-12-13T19:40:41.712Z,75.23
2018-12-13T19:45:44.585Z,75.06
2018-12-13T19:50:47.689Z,75.11
2018-12-13T19:55:50.589Z,75.55
2018-12-13T20:00:53.513Z,75.37
2018-12-13T20:05:56.487Z,75.61
2018-12-13T20:10:59.282Z,75.24
2018-12-13T20:16:04.558Z,75.58
2018-12-13T20:21:08.824Z,75.16
2018-12-13T20:26:13.561Z,75.15
2018-12-13T20:31:16.404Z,75.09
2018-12-13T20:36:19.356Z,75.38
2018-12-13T20:41:22.160Z,75.00
2018-12-13T20:46:24.907Z,75.27
2018-12-13T20:51:28.063Z,75.37
2018-12-13T20:56:30.744Z,75.28
2018-12-13T21:01:33.829Z,75.16
2018-12-13T21:06:37.002Z,74.75
2018-12-13T21:11:39.908Z,74.59
2018-12-13T21:16:42.735Z,74.73
2018-12-13T21:21:45.544Z,74.37
2018-12-13T21:26:48.407Z,74.47
2018-12-13T21:31:51.232Z,74.54
2018-12-13T21:36:54.148Z,74.44
2018-12-13T21:41:57.010Z,74.78
2018-12-13T21:46:59.781Z,74.90
2018-12-13T21:52:02.837Z,74.80
2018-12-13T21:57:06.149Z,74.79
2018-12-13T22:02:09.021Z,75.04
2018-12-13T22:07:11.958Z,75.00
2018-12-13T22:12:16.838Z,74.87
2018-12-13T22:17:19.761Z,74.69
2018-12-13T22:22:22.735Z,74.81
2018-12-13T22:27:25.577Z,74.70
2018-12-13T22:32:28.480Z,74.79
2018-12-13T22:37:31.377Z,75.04
2018-12-13T22:42:34.380Z,74.50
2018-12-13T22:47:37.189Z,74.41
2018-12-13T22:52:40.127Z,74.84
2018-12-13T22:57:43.023Z,74.59
2018-12-13T23:02:45.773Z,75.05
2018-12-13T23:07:48.639Z,74.50
2018-12-13T23:12:52.217Z,74.66
2018-12-13T23:17:55.257Z,74.63
2018-12-13T23:22:57.931Z,75.16
2018-12-13T23:28:00.729Z,74.90
2018-12-13T23:33:03.633Z,75.04
2018-12-13T23:38:06.384Z,75.10
2018-12-13T23:43:09.100Z,74.77
2018-12-13T23:48:12.163Z,75.15
2018-12-13T23:53:14.665Z,75.45
2018-12-13T23:58:17.449Z,74.90
